Aérodrome :
LOGIN :

S'inscrire | Disclaimer

   EN    FR    IT 

 










Légende :    VFR   VFR Marginal   IFR   IFR Intensif   IFR Très Intensif
Visi : 
Plafond : 
>= 8 km
>= 3000ft
5 à 8 km
1000 à 3000 ft
1500m à 5 km
500 à 1000 ft
800 à 1500m
200 à 500 ft
< 800m
< 200 ft
Symboles :   Orages  Brouillard  Fortes neiges  Fortes précipitations  Vent > 20 kt
SIGMETs :   Divers  Orages  Givrage  Turbulence  Onde Orograph.  Cendres Volcan.






- Altitude de l'aérodrome : 47 ft
- Code IATA : CBG


EGSC - Cambridge

DERNIER METAR :
  • 141120Z 25010KT 9999 SCT030 17/11 Q1000 RERA

METARs EXPIRÉS :
  • 141050Z 22012KT 190V260 9999 RA SCT030 17/10 Q1000
  • 141020Z 21012KT 180V240 9999 SCT030 17/10 Q1000
  • 140950Z 22011KT 180V250 9999 SCT025 17/11 Q1000
  • 140920Z 23015G26KT 9999 VCSH SCT025 16/10 Q1000
  • 140850Z 22013KT 180V250 9999 BKN025 17/11 Q1000
  • 140820Z 22012KT 170V240 9999 SCT018 16/11 Q1000
  • 140750Z 22011KT 170V240 9999 SCT018 15/10 Q1000
  • 140720Z 22009KT 170V240 9999 SCT012 15/12 Q1000
  • 140650Z 20008KT 170V230 9999 FEW012 14/12 Q1000

TAF AMD TAF EGSC
Valide du 14 à 09h jusqu'au 14 à 17h UTC


140932Z 1409/1417 21010KT 9999 SCT030
TEMPO 1409/1417 22015G25KT 6000 SHRA
PROB30
TEMPO 1412/1417 3000 +SHRA BKN014 BKN020CB



MET'MAP, la Météo Aéronautique d'un coup d'oeil ! - Copyright ORBIFLY Décembre 2007 - Disclaimer

ORBIFLY MET'MAP TEAM :

Programmation & Développement : Alexandra Zaïnal
Sur une idée originale de : Baudouin d'Aumeries
Soutien technique & logistique : Manuel Goepfert
Assistance : Marc-Olivier Méhu




SOURCES & CREDITS :

   NOAA